createdAt,value
2023-03-03T00:02:26.997Z,33.23
2023-03-03T00:06:35.597Z,32.00
2023-03-03T00:10:45.139Z,30.50
2023-03-03T00:14:53.946Z,28.83
2023-03-03T00:19:02.591Z,32.30
2023-03-03T00:23:24.093Z,25.10
2023-03-03T00:27:37.298Z,26.67
2023-03-03T00:31:45.988Z,40.97
2023-03-03T00:35:54.620Z,30.53
2023-03-03T00:40:23.865Z,23.03
2023-03-03T00:44:50.433Z,28.97
2023-03-03T00:48:59.252Z,27.77
2023-03-03T00:53:16.807Z,22.47
2023-03-03T00:57:25.436Z,25.73
2023-03-03T01:01:34.025Z,24.07
2023-03-03T01:05:43.179Z,36.30
2023-03-03T01:09:51.744Z,21.60
2023-03-03T01:14:00.289Z,25.20
2023-03-03T01:18:10.670Z,20.63
2023-03-03T01:22:19.227Z,28.20
2023-03-03T01:26:28.106Z,33.73
2023-03-03T01:30:37.197Z,29.57
2023-03-03T01:34:45.754Z,22.33
2023-03-03T01:38:54.431Z,23.40
2023-03-03T01:43:03.163Z,27.93
2023-03-03T01:47:20.381Z,29.50
2023-03-03T01:51:38.213Z,21.03
2023-03-03T01:55:48.684Z,28.07
2023-03-03T02:00:00.581Z,30.20
2023-03-03T02:04:10.287Z,36.43
2023-03-03T02:08:22.280Z,26.03
2023-03-03T02:12:38.262Z,26.80
2023-03-03T02:16:46.917Z,23.27
2023-03-03T02:21:01.500Z,16.73
2023-03-03T02:25:13.143Z,23.07
2023-03-03T02:29:21.808Z,22.60
2023-03-03T02:33:30.746Z,17.80
2023-03-03T02:37:39.490Z,21.90
2023-03-03T02:45:57.869Z,36.60
2023-03-03T02:50:07.133Z,24.87
2023-03-03T02:54:17.030Z,30.17
2023-03-03T02:58:25.608Z,23.87
2023-03-03T03:02:34.171Z,23.43
2023-03-03T03:06:43.379Z,24.63
2023-03-03T03:10:52.616Z,16.93
2023-03-03T03:15:01.220Z,28.67
2023-03-03T03:19:09.871Z,21.67
2023-03-03T03:23:37.704Z,15.50
2023-03-03T03:27:46.383Z,20.93
2023-03-03T03:31:55.078Z,30.73
2023-03-03T03:36:06.167Z,23.43
2023-03-03T03:40:14.826Z,28.47
2023-03-03T03:44:25.304Z,22.40
2023-03-03T03:48:34.539Z,23.00
2023-03-03T03:52:43.800Z,27.77
2023-03-03T03:56:53.994Z,19.13
2023-03-03T04:01:08.315Z,19.90
2023-03-03T04:05:17.048Z,27.97
2023-03-03T04:09:25.679Z,24.37
2023-03-03T04:13:35.558Z,26.03
2023-03-03T04:17:44.582Z,29.07
2023-03-03T04:21:53.363Z,30.80
2023-03-03T04:26:01.947Z,29.23
2023-03-03T04:30:31.876Z,28.47
2023-03-03T04:34:40.518Z,18.47
2023-03-03T04:38:49.235Z,29.23
2023-03-03T04:42:57.769Z,28.70
2023-03-03T04:47:06.433Z,25.90
2023-03-03T04:51:16.761Z,28.63
2023-03-03T04:55:25.402Z,35.23
2023-03-03T04:59:34.004Z,30.77
2023-03-03T05:03:42.833Z,40.67
2023-03-03T05:07:51.460Z,28.23
2023-03-03T05:12:00.127Z,33.17
2023-03-03T05:16:09.142Z,43.43
2023-03-03T05:20:18.281Z,30.50
2023-03-03T05:24:27.096Z,34.87
2023-03-03T05:28:35.726Z,29.27
2023-03-03T05:32:44.356Z,26.23
2023-03-03T05:36:53.084Z,24.70
2023-03-03T05:41:01.719Z,22.43
2023-03-03T05:45:11.249Z,25.27
2023-03-03T05:49:20.310Z,30.00
2023-03-03T05:53:29.644Z,25.60
2023-03-03T05:57:38.486Z,27.90
2023-03-03T06:01:47.139Z,24.30
2023-03-03T06:05:55.753Z,23.27
2023-03-03T06:10:05.111Z,35.77
2023-03-03T06:14:13.707Z,22.07
2023-03-03T06:18:25.180Z,20.70
2023-03-03T06:22:33.947Z,31.80
2023-03-03T06:26:42.787Z,24.30
2023-03-03T06:30:55.890Z,25.67
2023-03-03T06:35:04.567Z,19.70
2023-03-03T06:39:13.170Z,24.80
2023-03-03T06:43:41.151Z,24.67
2023-03-03T06:48:09.028Z,30.50
2023-03-03T06:52:20.651Z,27.63
2023-03-03T06:56:29.458Z,31.47
2023-03-03T07:00:37.998Z,22.82
2023-03-03T07:04:48.483Z,39.47
2023-03-03T07:08:58.048Z,25.40
2023-03-03T07:13:26.512Z,21.57
2023-03-03T07:17:35.774Z,24.83
2023-03-03T07:21:44.499Z,21.07
2023-03-03T07:25:54.465Z,28.57
2023-03-03T07:30:24.205Z,17.67
2023-03-03T07:34:35.877Z,25.00
2023-03-03T07:38:47.576Z,19.33
2023-03-03T07:42:56.048Z,25.87
2023-03-03T07:47:16.823Z,24.93
2023-03-03T07:51:31.650Z,30.40
2023-03-03T07:55:41.642Z,25.17
2023-03-03T07:59:56.693Z,22.27
2023-03-03T08:04:26.265Z,25.70
2023-03-03T08:08:37.932Z,17.53
2023-03-03T08:12:49.187Z,23.13
2023-03-03T08:17:00.631Z,20.53
2023-03-03T08:21:28.577Z,25.07
2023-03-03T08:25:37.155Z,25.23
2023-03-03T08:29:47.581Z,21.63
2023-03-03T08:33:55.982Z,22.40
2023-03-03T08:38:05.781Z,20.97
2023-03-03T08:42:16.227Z,26.67
2023-03-03T08:46:24.592Z,15.00
2023-03-03T08:50:33.219Z,25.37
2023-03-03T08:54:41.828Z,26.00
2023-03-03T08:59:10.061Z,20.70
2023-03-03T09:03:18.615Z,20.67
2023-03-03T09:07:47.965Z,20.70
2023-03-03T09:11:59.454Z,24.03
2023-03-03T09:16:28.352Z,26.13
2023-03-03T09:20:48.805Z,25.20
2023-03-03T09:25:00.062Z,21.70
2023-03-03T09:29:17.448Z,24.13
2023-03-03T09:33:43.789Z,22.40
2023-03-03T09:37:54.101Z,21.63
2023-03-03T09:42:24.645Z,25.83
2023-03-03T09:46:54.406Z,25.93
2023-03-03T09:51:12.811Z,19.10
2023-03-03T09:55:39.534Z,20.23
2023-03-03T10:00:12.370Z,17.10
2023-03-03T10:04:26.786Z,20.57
2023-03-03T10:08:42.491Z,23.43
2023-03-03T10:13:12.559Z,22.13
2023-03-03T10:17:27.463Z,18.83
2023-03-03T10:21:44.664Z,21.20
2023-03-03T10:25:56.293Z,29.83
2023-03-03T10:30:38.206Z,18.27
2023-03-03T10:34:53.456Z,14.67
2023-03-03T10:39:24.518Z,26.53
2023-03-03T10:43:51.369Z,16.70
2023-03-03T10:48:30.312Z,14.23
2023-03-03T10:52:42.025Z,15.13
2023-03-03T10:57:05.587Z,18.87
2023-03-03T11:01:17.276Z,16.40
2023-03-03T11:05:37.962Z,14.20
2023-03-03T11:10:18.310Z,14.60
2023-03-03T11:14:41.646Z,16.77
2023-03-03T11:19:15.792Z,15.33
2023-03-03T11:23:45.597Z,18.03
2023-03-03T11:28:26.231Z,15.93
2023-03-03T11:32:41.289Z,12.13
2023-03-03T11:36:58.692Z,14.40
2023-03-03T11:41:34.147Z,18.10
2023-03-03T11:45:52.080Z,21.60
2023-03-03T11:50:06.873Z,15.00
2023-03-03T11:54:27.376Z,17.67
2023-03-03T11:58:39.015Z,13.67
2023-03-03T12:03:18.219Z,14.83
2023-03-03T12:07:53.404Z,13.73
2023-03-03T12:12:21.591Z,17.77
2023-03-03T12:16:40.633Z,16.10
2023-03-03T12:21:18.193Z,11.87
2023-03-03T12:25:54.422Z,19.43
2023-03-03T12:30:23.015Z,15.63
2023-03-03T12:34:46.699Z,20.10
2023-03-03T12:39:04.238Z,23.20
2023-03-03T12:43:24.901Z,18.93
2023-03-03T12:47:44.988Z,17.37
2023-03-03T12:52:02.489Z,19.80
2023-03-03T12:56:16.976Z,17.60
2023-03-03T13:00:40.630Z,18.30
2023-03-03T13:04:58.009Z,25.87
2023-03-03T13:09:24.623Z,20.27
2023-03-03T13:13:51.474Z,20.23
2023-03-03T13:18:27.658Z,21.20
2023-03-03T13:22:39.410Z,19.20
2023-03-03T13:27:00.365Z,11.33
2023-03-03T13:31:12.412Z,21.07
2023-03-03T13:35:42.582Z,24.77
2023-03-03T13:40:00.196Z,15.60
2023-03-03T13:44:23.915Z,13.40
2023-03-03T13:48:56.111Z,16.73
2023-03-03T13:53:27.099Z,17.00
2023-03-03T13:57:56.885Z,22.07
2023-03-03T14:02:28.785Z,12.60
2023-03-03T14:06:39.025Z,12.13
2023-03-03T14:11:25.950Z,20.17
2023-03-03T14:15:43.339Z,20.10
2023-03-03T14:20:16.081Z,15.80
2023-03-03T14:24:26.568Z,21.33
2023-03-03T14:28:51.207Z,11.60
2023-03-03T14:33:02.958Z,20.70
2023-03-03T14:37:28.959Z,19.50
2023-03-03T14:50:12.380Z,15.77
2023-03-03T14:54:29.666Z,15.50
2023-03-03T14:58:43.200Z,22.77
2023-03-03T15:03:08.482Z,15.93
2023-03-03T15:07:35.599Z,18.60
2023-03-03T15:11:45.903Z,16.73
2023-03-03T15:16:03.343Z,15.47
2023-03-03T15:20:18.120Z,15.53
2023-03-03T15:24:42.108Z,16.80
2023-03-03T15:29:16.224Z,21.40
2023-03-03T15:33:44.557Z,23.07
2023-03-03T15:38:17.310Z,20.27
2023-03-03T15:42:35.926Z,14.63
2023-03-03T15:47:03.651Z,15.53
2023-03-03T15:51:24.461Z,18.63
2023-03-03T15:55:54.598Z,15.73
2023-03-03T16:00:26.832Z,19.60
2023-03-03T16:04:39.155Z,13.53
2023-03-03T16:08:58.998Z,16.83
2023-03-03T16:13:16.239Z,17.87
2023-03-03T16:17:34.799Z,20.77
2023-03-03T16:21:52.301Z,14.03
2023-03-03T16:26:10.255Z,21.17
2023-03-03T16:30:21.953Z,22.70
2023-03-03T16:34:39.492Z,19.77
2023-03-03T16:39:15.670Z,19.73
2023-03-03T16:43:30.135Z,13.77
2023-03-03T16:48:01.362Z,22.63
2023-03-03T16:52:15.143Z,19.57
2023-03-03T16:56:35.297Z,15.20
2023-03-03T17:00:52.901Z,23.27
2023-03-03T17:05:05.156Z,17.00
2023-03-03T17:09:32.230Z,24.70
2023-03-03T17:13:48.661Z,18.13
2023-03-03T17:18:06.401Z,20.33
2023-03-03T17:22:46.773Z,28.50
2023-03-03T17:27:19.099Z,15.43
2023-03-03T17:31:42.796Z,21.27
2023-03-03T17:35:54.746Z,20.23
2023-03-03T17:40:27.743Z,20.53
2023-03-03T17:45:00.716Z,18.07
2023-03-03T17:49:18.321Z,17.50
2023-03-03T17:54:03.490Z,19.53
2023-03-03T17:58:35.960Z,18.20
2023-03-03T18:03:10.362Z,23.63
2023-03-03T18:07:44.667Z,17.17
2023-03-03T18:11:59.806Z,18.95
2023-03-03T18:16:35.930Z,21.83
2023-03-03T18:21:11.141Z,18.60
2023-03-03T18:25:26.616Z,27.00
2023-03-03T18:29:35.251Z,23.73
2023-03-03T18:34:10.695Z,26.63
2023-03-03T18:38:25.380Z,22.97
2023-03-03T18:42:53.981Z,25.70
2023-03-03T18:47:02.620Z,22.20
2023-03-03T18:51:11.336Z,25.03
2023-03-03T18:55:23.451Z,24.93
2023-03-03T18:59:37.687Z,20.83
2023-03-03T19:03:49.420Z,15.48
2023-03-03T19:08:20.902Z,12.20
2023-03-03T19:12:53.109Z,13.77
2023-03-03T19:17:20.933Z,16.27
2023-03-03T19:21:37.749Z,18.50
2023-03-03T19:25:46.480Z,15.33
2023-03-03T19:29:58.182Z,19.77
2023-03-03T19:34:15.707Z,9.30
2023-03-03T19:38:39.500Z,13.83
2023-03-03T19:42:58.594Z,10.83
2023-03-03T19:47:10.224Z,8.30
2023-03-03T19:51:54.586Z,9.53
2023-03-03T19:56:22.833Z,23.73
2023-03-03T20:00:37.092Z,12.20
2023-03-03T20:05:18.698Z,25.27
2023-03-03T20:09:38.965Z,41.67
2023-03-03T20:14:17.741Z,7.20
2023-03-03T20:19:02.908Z,9.10
2023-03-03T20:23:44.305Z,6.13
2023-03-03T20:28:04.942Z,6.23
2023-03-03T20:32:26.228Z,4.87
2023-03-03T20:36:40.790Z,10.43
2023-03-03T20:40:55.432Z,4.90
2023-03-03T20:45:25.362Z,4.87
2023-03-03T20:50:00.166Z,8.20
2023-03-03T20:54:14.932Z,4.57
2023-03-03T20:58:39.025Z,7.87
2023-03-03T21:03:16.333Z,5.53
2023-03-03T21:07:27.142Z,5.70
2023-03-03T21:11:38.806Z,6.73
2023-03-03T21:15:55.626Z,6.83
2023-03-03T21:20:27.697Z,7.73
2023-03-03T21:24:55.754Z,7.90
2023-03-03T21:29:04.300Z,4.13
2023-03-03T21:33:15.297Z,4.37
2023-03-03T21:37:44.710Z,7.40
2023-03-03T21:42:05.216Z,5.60
2023-03-03T21:46:14.717Z,7.00
2023-03-03T21:50:23.933Z,8.10
2023-03-03T21:54:32.541Z,4.37
2023-03-03T21:58:44.549Z,5.83
2023-03-03T22:02:54.739Z,4.13
2023-03-03T22:07:03.341Z,6.10
2023-03-03T22:11:12.437Z,4.90
2023-03-03T22:15:22.088Z,4.43
2023-03-03T22:19:31.221Z,4.53
2023-03-03T22:23:39.797Z,8.63
2023-03-03T22:27:48.344Z,4.10
2023-03-03T22:31:56.971Z,13.43
2023-03-03T22:36:06.215Z,9.70
2023-03-03T22:40:15.037Z,6.83
2023-03-03T22:44:45.749Z,4.40
2023-03-03T22:48:53.286Z,5.13
2023-03-03T22:53:01.933Z,3.63
2023-03-03T22:57:10.485Z,5.20
2023-03-03T23:01:19.068Z,10.27
2023-03-03T23:05:27.652Z,9.90
2023-03-03T23:09:36.542Z,7.47
2023-03-03T23:13:45.104Z,6.90
2023-03-03T23:17:53.657Z,9.93
2023-03-03T23:22:02.188Z,6.43
2023-03-03T23:26:10.831Z,4.60
2023-03-03T23:30:20.844Z,4.92
2023-03-03T23:34:29.753Z,7.20
2023-03-03T23:38:38.315Z,6.20
2023-03-03T23:42:48.590Z,4.47
2023-03-03T23:46:57.192Z,7.13
2023-03-03T23:51:06.192Z,8.70
2023-03-03T23:55:14.716Z,3.80
2023-03-03T23:59:23.247Z,6.17
